Time;durP1;ratioP1;P1;durP2;ratioP2;P2;SDS_P1;SDS_P2;PMS_P1;PMS_P2;Temp;Humidity;BMP_temperature;BMP_pressure;BME280_temperature;BME280_humidity;BME280_pressure;Samples;Min_cycle;Max_cycle;Signal;HPM_P1;HPM_P2
2022/09/30 00:00:13;;;;;;;;;;;5.90;99.90;;;;;;6155210;23;20289;-85
2022/09/30 00:02:40;;;;;;;;;;;5.90;99.90;;;;;;6155159;23;20262;-85
2022/09/30 00:05:07;;;;;;;;;;;5.90;99.90;;;;;;6155629;23;19991;-86
2022/09/30 00:07:34;;;;;;;;;;;5.90;99.90;;;;;;6155628;23;19917;-85
2022/09/30 00:10:02;;;;;;;;;;;6.00;99.90;;;;;;6155610;23;19920;-85
2022/09/30 00:12:29;;;;;;;;;;;6.00;99.90;;;;;;6155652;23;19913;-85
2022/09/30 00:14:58;;;;;;;;;;;6.00;99.90;;;;;;6155127;23;19912;-85
2022/09/30 00:17:24;;;;;;;;;;;6.10;99.90;;;;;;6155417;23;20311;-84
2022/09/30 00:19:51;;;;;;;;;;;6.10;99.90;;;;;;6155806;23;19916;-85
2022/09/30 00:22:18;;;;;;;;;;;6.10;99.90;;;;;;6155474;23;20283;-85
2022/09/30 00:24:45;;;;;;;;;;;6.20;99.90;;;;;;6155560;23;20312;-85
2022/09/30 00:27:16;;;;;;;;;;;6.20;99.90;;;;;;6155538;23;19948;-85
2022/09/30 00:29:43;;;;;;;;;;;6.30;99.90;;;;;;6155550;23;19923;-84
2022/09/30 00:32:12;;;;;;;;;;;6.30;99.90;;;;;;6155345;23;19968;-86
2022/09/30 00:34:38;;;;;;;;;;;6.40;99.90;;;;;;6154782;23;20316;-85
2022/09/30 00:37:05;;;;;;;;;;;6.40;99.90;;;;;;6154894;23;20383;-84
2022/09/30 00:39:34;;;;;;;;;;;6.50;99.90;;;;;;6155085;23;20283;-86
2022/09/30 00:42:02;;;;;;;;;;;6.40;99.90;;;;;;6155418;23;20223;-85
2022/09/30 00:44:49;;;;;;;;;;;6.50;99.90;;;;;;6154949;23;20375;-86
2022/09/30 00:47:30;;;;;;;;;;;6.50;99.90;;;;;;6155600;23;19913;-85
2022/09/30 00:49:58;;;;;;;;;;;6.50;99.90;;;;;;6155332;23;20323;-85
2022/09/30 00:52:25;;;;;;;;;;;6.50;99.90;;;;;;6155269;23;20257;-85
2022/09/30 00:54:52;;;;;;;;;;;6.50;99.90;;;;;;6155268;23;19913;-84
2022/09/30 00:57:19;;;;;;;;;;;6.50;99.90;;;;;;6155532;23;19912;-84
2022/09/30 00:59:47;;;;;;;;;;;6.50;99.90;;;;;;6155203;23;19917;-85
2022/09/30 01:02:14;;;;;;;;;;;6.50;99.90;;;;;;6155508;23;19917;-86
2022/09/30 01:04:42;;;;;;;;;;;6.50;99.90;;;;;;6155775;23;20296;-85
2022/09/30 01:07:10;;;;;;;;;;;6.30;99.90;;;;;;6157294;23;19967;-86
2022/09/30 01:09:38;;;;;;;;;;;6.30;99.90;;;;;;6156918;23;19955;-85
2022/09/30 01:12:06;;;;;;;;;;;6.20;99.90;;;;;;6157087;23;19916;-84
2022/09/30 01:14:34;;;;;;;;;;;6.20;99.90;;;;;;6156306;23;19913;-85
2022/09/30 01:17:05;;;;;;;;;;;6.10;99.90;;;;;;6156346;23;20387;-85
2022/09/30 01:19:56;;;;;;;;;;;6.10;99.90;;;;;;6156926;23;19912;-84
2022/09/30 01:22:30;;;;;;;;;;;6.00;99.90;;;;;;6156591;23;19913;-85
2022/09/30 01:25:15;;;;;;;;;;;6.00;99.90;;;;;;6157148;23;19913;-85
2022/09/30 01:28:02;;;;;;;;;;;5.90;99.90;;;;;;6156694;23;19912;-85
2022/09/30 01:30:45;;;;;;;;;;;5.80;99.90;;;;;;6157527;23;19982;-85
2022/09/30 01:33:21;;;;;;;;;;;5.80;99.90;;;;;;6156088;23;19913;-84
2022/09/30 01:35:57;;;;;;;;;;;5.70;99.90;;;;;;6156670;23;19912;-84
2022/09/30 01:38:28;;;;;;;;;;;5.60;99.90;;;;;;6156886;23;19967;-84
2022/09/30 01:41:00;;;;;;;;;;;5.50;99.90;;;;;;6156420;23;19916;-84
2022/09/30 01:43:32;;;;;;;;;;;5.40;99.90;;;;;;6157147;23;19912;-85
2022/09/30 01:46:03;;;;;;;;;;;5.30;99.90;;;;;;6157017;23;19916;-84
2022/09/30 01:48:34;;;;;;;;;;;5.30;99.90;;;;;;6156912;23;19917;-84
2022/09/30 01:51:03;;;;;;;;;;;5.20;99.90;;;;;;6156608;23;19999;-84
2022/09/30 01:53:35;;;;;;;;;;;5.20;99.90;;;;;;6156684;23;19918;-84
2022/09/30 01:56:04;;;;;;;;;;;5.10;99.90;;;;;;6156924;23;19912;-84
2022/09/30 01:58:35;;;;;;;;;;;5.10;99.90;;;;;;6157256;23;19967;-84
2022/09/30 02:01:06;;;;;;;;;;;5.10;99.90;;;;;;6156685;23;19967;-84
2022/09/30 02:03:35;;;;;;;;;;;5.00;99.90;;;;;;6156499;23;19916;-84
2022/09/30 02:06:03;;;;;;;;;;;5.00;99.90;;;;;;6157032;23;20268;-85
2022/09/30 02:08:32;;;;;;;;;;;5.00;99.90;;;;;;6156884;23;19913;-84
2022/09/30 02:11:01;;;;;;;;;;;4.90;99.90;;;;;;6156904;23;19959;-84
2022/09/30 02:13:33;;;;;;;;;;;4.90;99.90;;;;;;6156922;23;19914;-84
2022/09/30 02:16:11;;;;;;;;;;;4.90;99.90;;;;;;6156233;23;20239;-84
2022/09/30 02:18:41;;;;;;;;;;;4.80;99.90;;;;;;6156419;23;19916;-84
2022/09/30 02:21:09;;;;;;;;;;;4.80;99.90;;;;;;6156479;23;19912;-84
2022/09/30 02:23:39;;;;;;;;;;;4.80;99.90;;;;;;6156157;23;19967;-84
2022/09/30 02:26:09;;;;;;;;;;;4.80;99.90;;;;;;6156335;23;19912;-84
2022/09/30 02:28:37;;;;;;;;;;;4.80;99.90;;;;;;6156422;23;19912;-84
2022/09/30 02:31:04;;;;;;;;;;;4.80;99.90;;;;;;6156289;23;19940;-84
2022/09/30 02:33:33;;;;;;;;;;;4.70;99.90;;;;;;6155841;23;19912;-84
2022/09/30 02:36:04;;;;;;;;;;;4.70;99.90;;;;;;6156585;23;19912;-84
2022/09/30 02:38:35;;;;;;;;;;;4.60;99.90;;;;;;6156298;23;20308;-84
2022/09/30 02:41:05;;;;;;;;;;;4.60;99.90;;;;;;6156819;23;19912;-84
2022/09/30 02:43:32;;;;;;;;;;;4.60;99.90;;;;;;6156644;23;19922;-84
2022/09/30 02:46:05;;;;;;;;;;;4.50;99.90;;;;;;6156617;23;19913;-84
2022/09/30 02:48:36;;;;;;;;;;;4.50;99.90;;;;;;6156238;23;19966;-84
2022/09/30 02:51:06;;;;;;;;;;;4.40;99.90;;;;;;6156765;23;19916;-84
2022/09/30 02:53:35;;;;;;;;;;;4.40;99.90;;;;;;6156053;23;19959;-84
2022/09/30 02:56:17;;;;;;;;;;;4.40;99.90;;;;;;6156443;23;19916;-84
2022/09/30 02:58:45;;;;;;;;;;;4.30;99.90;;;;;;6155984;23;19913;-84
2022/09/30 03:01:12;;;;;;;;;;;4.30;99.90;;;;;;6156350;23;19913;-84
2022/09/30 03:03:40;;;;;;;;;;;4.30;99.90;;;;;;6155584;23;19916;-84
2022/09/30 03:06:09;;;;;;;;;;;4.30;99.90;;;;;;6155701;23;19912;-83
2022/09/30 03:08:36;;;;;;;;;;;4.20;99.90;;;;;;6155275;23;19928;-84
2022/09/30 03:11:03;;;;;;;;;;;4.20;99.90;;;;;;6156298;23;19912;-83
2022/09/30 03:13:39;;;;;;;;;;;4.20;99.90;;;;;;6155855;23;20308;-84
2022/09/30 03:16:13;;;;;;;;;;;4.10;99.90;;;;;;6156142;23;19913;-84
2022/09/30 03:18:48;;;;;;;;;;;4.10;99.90;;;;;;6154621;23;19920;-83
2022/09/30 03:21:24;;;;;;;;;;;4.10;1.00;;;;;;6154534;23;19912;-83
2022/09/30 03:24:14;;;;;;;;;;;4.10;1.00;;;;;;6155921;23;19912;-84
2022/09/30 03:26:46;;;;;;;;;;;4.20;1.00;;;;;;6121019;23;19917;-83
2022/09/30 03:29:18;;;;;;;;;;;4.10;99.90;;;;;;6154910;23;19916;-83
2022/09/30 03:31:52;;;;;;;;;;;4.10;99.90;;;;;;6155480;23;19944;-83
2022/09/30 03:34:21;;;;;;;;;;;4.10;99.90;;;;;;6155429;23;20268;-83
2022/09/30 03:36:53;;;;;;;;;;;4.10;99.90;;;;;;6155814;23;19919;-83
2022/09/30 03:39:25;;;;;;;;;;;4.10;99.90;;;;;;6155135;23;19912;-83
2022/09/30 03:41:55;;;;;;;;;;;4.10;99.90;;;;;;6155484;23;19913;-83
2022/09/30 03:44:25;;;;;;;;;;;4.10;99.90;;;;;;6155323;23;20276;-83
2022/09/30 03:46:54;;;;;;;;;;;4.10;99.90;;;;;;6155545;23;19912;-83
2022/09/30 03:49:22;;;;;;;;;;;4.10;99.90;;;;;;6155275;23;19916;-83
2022/09/30 03:51:50;;;;;;;;;;;4.10;99.90;;;;;;6155197;23;19917;-83
2022/09/30 03:54:17;;;;;;;;;;;4.10;99.90;;;;;;6155403;23;19963;-83
2022/09/30 03:56:44;;;;;;;;;;;4.10;99.90;;;;;;6155662;23;19913;-83
2022/09/30 03:59:12;;;;;;;;;;;4.10;99.90;;;;;;6155627;23;19960;-83
2022/09/30 04:01:39;;;;;;;;;;;4.10;99.90;;;;;;6154984;23;19912;-83
2022/09/30 04:04:06;;;;;;;;;;;4.00;99.90;;;;;;6155530;23;19922;-83
2022/09/30 04:06:32;;;;;;;;;;;4.00;99.90;;;;;;6154285;23;19967;-83
2022/09/30 04:09:01;;;;;;;;;;;4.00;99.90;;;;;;6155333;23;19913;-83
2022/09/30 04:11:27;;;;;;;;;;;4.00;99.90;;;;;;6155545;23;19959;-83
2022/09/30 04:13:54;;;;;;;;;;;4.00;99.90;;;;;;6155542;23;19959;-84
2022/09/30 04:16:21;;;;;;;;;;;3.90;99.90;;;;;;6155507;23;19912;-83
2022/09/30 04:18:48;;;;;;;;;;;3.90;99.90;;;;;;6154975;23;19912;-83
2022/09/30 04:21:15;;;;;;;;;;;3.80;99.90;;;;;;6155188;23;20337;-83
2022/09/30 04:23:42;;;;;;;;;;;3.80;99.90;;;;;;6155074;23;19912;-83
2022/09/30 04:26:12;;;;;;;;;;;3.70;99.90;;;;;;6155627;23;20275;-83
2022/09/30 04:28:38;;;;;;;;;;;3.70;99.90;;;;;;6155140;23;20240;-83
2022/09/30 04:31:05;;;;;;;;;;;3.60;99.90;;;;;;6154785;23;20312;-83
2022/09/30 04:33:32;;;;;;;;;;;3.50;91.80;;;;;;6155554;23;19912;-83
2022/09/30 04:36:00;;;;;;;;;;;3.50;97.00;;;;;;6155647;23;19967;-83
2022/09/30 04:38:28;;;;;;;;;;;3.40;99.90;;;;;;6154104;23;19959;-83
2022/09/30 04:40:55;;;;;;;;;;;3.40;99.90;;;;;;6155949;23;19916;-83
2022/09/30 04:43:24;;;;;;;;;;;3.30;99.90;;;;;;6157265;23;20312;-84
2022/09/30 04:45:51;;;;;;;;;;;3.30;99.90;;;;;;6157474;23;19913;-84
2022/09/30 04:48:18;;;;;;;;;;;3.20;99.90;;;;;;6157621;23;19967;-86
2022/09/30 04:50:46;;;;;;;;;;;3.20;99.90;;;;;;6155351;23;19912;-83
2022/09/30 04:53:15;;;;;;;;;;;3.10;99.90;;;;;;6155984;23;19913;-86
2022/09/30 04:55:42;;;;;;;;;;;3.10;99.90;;;;;;6156008;23;19920;-85
2022/09/30 04:58:09;;;;;;;;;;;3.00;99.90;;;;;;6156874;23;20316;-85
2022/09/30 05:00:37;;;;;;;;;;;3.00;99.90;;;;;;6155270;23;19976;-86
2022/09/30 05:03:05;;;;;;;;;;;3.00;99.90;;;;;;6157795;23;19991;-84
2022/09/30 05:05:33;;;;;;;;;;;3.00;99.90;;;;;;6130401;23;19912;-84
2022/09/30 05:08:00;;;;;;;;;;;3.00;99.90;;;;;;6127581;23;19924;-84
2022/09/30 05:10:27;;;;;;;;;;;2.90;99.90;;;;;;6127845;23;20007;-87
2022/09/30 05:12:54;;;;;;;;;;;2.90;99.90;;;;;;6129069;23;19917;-87
2022/09/30 05:15:20;;;;;;;;;;;2.90;99.90;;;;;;6128470;23;19916;-86
2022/09/30 05:17:50;;;;;;;;;;;3.00;99.90;;;;;;6127618;23;19916;-85
2022/09/30 05:20:17;;;;;;;;;;;3.00;99.90;;;;;;6127744;23;19920;-86
2022/09/30 05:22:43;;;;;;;;;;;3.00;99.90;;;;;;6126809;23;19914;-85
2022/09/30 05:25:10;;;;;;;;;;;3.00;99.90;;;;;;6127739;23;19912;-88
2022/09/30 05:27:37;;;;;;;;;;;3.00;99.90;;;;;;6128458;23;20226;-85
2022/09/30 05:30:05;;;;;;;;;;;3.00;99.90;;;;;;6127189;23;19959;-87
2022/09/30 05:32:32;;;;;;;;;;;3.00;99.90;;;;;;6127781;23;19913;-85
2022/09/30 05:35:02;;;;;;;;;;;3.10;99.90;;;;;;6128564;23;19967;-87
2022/09/30 05:37:29;;;;;;;;;;;3.10;99.90;;;;;;6129338;23;19920;-87
2022/09/30 05:39:56;;;;;;;;;;;3.20;99.90;;;;;;6128018;23;19960;-86
2022/09/30 05:42:22;;;;;;;;;;;3.20;99.90;;;;;;6128993;23;19969;-86
2022/09/30 05:44:49;;;;;;;;;;;3.30;99.90;;;;;;6129152;23;19916;-89
2022/09/30 05:47:16;;;;;;;;;;;3.70;99.90;;;;;;6128817;23;19968;-87
2022/09/30 05:49:44;;;;;;;;;;;4.10;99.90;;;;;;6127087;23;19917;-88
2022/09/30 05:52:13;;;;;;;;;;;4.60;1.00;;;;;;6127670;23;19912;-88
2022/09/30 05:54:41;;;;;;;;;;;5.30;1.00;;;;;;6127367;23;19996;-88
2022/09/30 05:57:08;;;;;;;;;;;6.10;1.00;;;;;;6127055;23;19916;-86
2022/09/30 05:59:36;;;;;;;;;;;6.90;1.00;;;;;;6127082;23;19913;-88
2022/09/30 06:02:03;;;;;;;;;;;7.80;1.00;;;;;;6127277;23;19923;-87
2022/09/30 06:04:30;;;;;;;;;;;8.70;1.00;;;;;;6127137;23;19959;-85
2022/09/30 06:06:57;;;;;;;;;;;9.60;1.00;;;;;;6127339;23;19917;-86
2022/09/30 06:09:25;;;;;;;;;;;10.30;1.00;;;;;;6127108;23;20256;-86
2022/09/30 06:11:57;;;;;;;;;;;10.90;1.00;;;;;;6127334;23;19916;-86
2022/09/30 06:14:24;;;;;;;;;;;11.60;1.00;;;;;;6127284;23;20289;-86
2022/09/30 06:16:51;;;;;;;;;;;12.10;99.90;;;;;;6127252;23;19913;-86
2022/09/30 06:19:18;;;;;;;;;;;12.60;99.90;;;;;;6126928;23;20214;-86
2022/09/30 06:21:45;;;;;;;;;;;13.00;99.90;;;;;;6126762;23;20236;-85
2022/09/30 06:24:13;;;;;;;;;;;13.10;80.20;;;;;;6126975;23;19913;-85
2022/09/30 06:26:42;;;;;;;;;;;13.10;81.80;;;;;;6126987;23;19913;-86
2022/09/30 06:29:09;;;;;;;;;;;12.80;27.10;;;;;;6127055;23;19913;-85
2022/09/30 06:31:35;;;;;;;;;;;12.60;1.00;;;;;;6126655;23;20328;-85
2022/09/30 06:34:02;;;;;;;;;;;12.30;1.00;;;;;;6127154;23;19977;-85
2022/09/30 06:36:30;;;;;;;;;;;12.00;1.00;;;;;;6126958;23;19916;-85
2022/09/30 06:38:57;;;;;;;;;;;11.90;1.00;;;;;;6126899;23;20456;-85
2022/09/30 06:41:25;;;;;;;;;;;12.00;1.00;;;;;;6126544;23;20313;-85
2022/09/30 06:43:54;;;;;;;;;;;12.10;1.00;;;;;;6126881;23;19920;-85
2022/09/30 06:46:22;;;;;;;;;;;12.70;47.40;;;;;;6126490;23;19967;-84
2022/09/30 06:48:51;;;;;;;;;;;13.50;99.90;;;;;;6126815;23;19913;-85
2022/09/30 06:51:19;;;;;;;;;;;14.40;98.50;;;;;;6126422;23;19916;-85
2022/09/30 06:53:46;;;;;;;;;;;15.40;65.90;;;;;;6127119;23;19912;-86
2022/09/30 06:56:13;;;;;;;;;;;16.30;1.00;;;;;;6126967;23;19976;-86
2022/09/30 06:58:42;;;;;;;;;;;17.20;1.00;;;;;;6126852;23;19917;-86
2022/09/30 07:01:13;;;;;;;;;;;18.40;1.00;;;;;;6125866;23;19970;-86
2022/09/30 07:03:41;;;;;;;;;;;19.30;1.00;;;;;;6126441;23;19920;-86
2022/09/30 07:06:08;;;;;;;;;;;20.30;1.00;;;;;;6126723;23;19925;-86
2022/09/30 07:08:37;;;;;;;;;;;21.20;1.00;;;;;;6126820;23;19913;-85
2022/09/30 07:11:10;;;;;;;;;;;21.90;1.00;;;;;;6126255;23;19916;-86
2022/09/30 07:13:37;;;;;;;;;;;22.50;1.00;;;;;;6126742;23;19999;-87
2022/09/30 07:16:04;;;;;;;;;;;23.00;1.00;;;;;;6126430;23;19913;-88
2022/09/30 07:18:32;;;;;;;;;;;23.60;1.00;;;;;;6126278;23;20324;-88
2022/09/30 07:20:59;;;;;;;;;;;24.20;1.00;;;;;;6126590;23;19917;-87
2022/09/30 07:23:26;;;;;;;;;;;24.70;1.00;;;;;;6126322;23;19967;-90
2022/09/30 07:25:55;;;;;;;;;;;25.30;1.00;;;;;;6126216;23;19959;-89
2022/09/30 07:28:22;;;;;;;;;;;25.60;1.00;;;;;;6126961;23;19913;-89
2022/09/30 07:30:49;;;;;;;;;;;25.90;1.00;;;;;;6127211;23;19912;-90
2022/09/30 07:33:16;;;;;;;;;;;26.20;1.00;;;;;;6126585;23;19917;-91
2022/09/30 07:35:51;;;;;;;;;;;26.50;1.00;;;;;;6127097;23;19948;-89
2022/09/30 07:38:19;;;;;;;;;;;26.70;1.00;;;;;;6126561;23;19952;-89
2022/09/30 07:40:53;;;;;;;;;;;27.00;1.00;;;;;;6126889;23;19938;-89
2022/09/30 07:43:20;;;;;;;;;;;27.50;1.00;;;;;;6126586;23;19956;-86
2022/09/30 07:45:47;;;;;;;;;;;27.90;1.00;;;;;;6126358;23;19912;-88
2022/09/30 07:48:41;;;;;;;;;;;28.70;1.00;;;;;;6126099;23;19988;-89
2022/09/30 07:51:10;;;;;;;;;;;29.00;1.00;;;;;;6126490;23;19963;-89
2022/09/30 07:53:36;;;;;;;;;;;29.30;1.00;;;;;;6126202;23;19913;-87
2022/09/30 07:56:04;;;;;;;;;;;29.50;1.00;;;;;;6126428;23;20260;-88
2022/09/30 07:58:31;;;;;;;;;;;29.70;1.00;;;;;;6126388;23;19967;-90
2022/09/30 08:00:57;;;;;;;;;;;30.00;1.00;;;;;;6126833;23;20213;-87
2022/09/30 08:03:24;;;;;;;;;;;30.20;1.00;;;;;;6126573;23;19984;-86
2022/09/30 08:05:51;;;;;;;;;;;30.30;1.00;;;;;;6126402;23;19968;-88
2022/09/30 08:08:19;;;;;;;;;;;30.40;1.00;;;;;;6126657;23;20276;-87
2022/09/30 08:10:46;;;;;;;835.70;753.45;;;30.30;1.00;;;;;;6126092;23;19991;-86
2022/09/30 08:13:15;;;;;;;814.38;733.40;;;30.20;1.00;;;;;;6125488;23;20170;-87
2022/09/30 08:15:42;;;;;;;820.53;739.67;;;30.10;1.00;;;;;;6126124;23;20955;-90
2022/09/30 08:18:09;;;;;;;859.50;766.97;;;30.00;1.00;;;;;;6126106;23;20167;-90
2022/09/30 08:20:36;;;;;;;799.50;719.30;;;30.00;1.00;;;;;;6125960;23;20175;-86
2022/09/30 08:23:03;;;;;;;818.47;736.28;;;29.90;1.00;;;;;;6125790;23;20210;-89
2022/09/30 08:25:31;;;;;;;815.13;733.30;;;29.90;1.00;;;;;;6125968;23;20186;-90
2022/09/30 08:27:58;;;;;;;814.97;731.90;;;29.90;1.00;;;;;;6126093;23;20238;-88
2022/09/30 08:30:25;;;;;;;816.40;735.17;;;29.90;1.00;;;;;;6126136;23;20226;-88
2022/09/30 08:32:52;;;;;;;866.17;782.13;;;29.90;1.00;;;;;;6126289;23;20166;-88
2022/09/30 08:35:19;;;;;;;852.33;768.92;;;30.00;1.00;;;;;;6125971;23;20246;-88
2022/09/30 08:37:46;;;;;;;836.35;753.88;;;29.90;1.00;;;;;;6126075;23;20167;-86
2022/09/30 08:40:21;;;;;;;829.05;747.55;;;29.70;1.00;;;;;;6126106;23;20233;-91
2022/09/30 08:43:02;;;;;;;817.67;736.55;;;29.50;1.00;;;;;;6125995;23;20162;-88
2022/09/30 08:45:38;;;;;;;831.50;749.35;;;29.20;1.00;;;;;;6126029;23;20176;-90
2022/09/30 08:48:19;;;;;;;816.38;735.03;;;29.00;1.00;;;;;;6125558;23;20162;-87
2022/09/30 08:50:55;;;;;;;833.83;751.55;;;28.70;1.00;;;;;;6125959;23;20155;-90
2022/09/30 08:53:26;;;;;;;845.55;762.60;;;28.50;1.00;;;;;;6125753;23;20155;-88
2022/09/30 08:55:56;;;;;;;806.20;724.92;;;28.50;1.00;;;;;;6126302;23;20159;-85
2022/09/30 08:58:28;;;;;;;839.25;756.35;;;28.60;1.00;;;;;;6125926;23;20238;-87
2022/09/30 09:01:01;;;;;;;832.38;749.53;;;28.40;1.00;;;;;;6126244;23;20163;-89
2022/09/30 09:03:30;;;;;;;846.42;763.03;;;28.30;1.00;;;;;;6125637;23;20167;-88
2022/09/30 09:06:08;;;;;;;839.33;756.17;;;28.30;1.00;;;;;;6126086;23;20199;-89
2022/09/30 09:08:50;;;;;;;851.75;768.47;;;28.30;1.00;;;;;;6125749;23;20191;-88
2022/09/30 09:11:29;;;;;;;858.95;774.90;;;28.30;1.00;;;;;;6125838;23;20247;-87
2022/09/30 09:14:02;;;;;;;;;;;28.40;1.00;;;;;;6126162;23;20159;-88
2022/09/30 09:16:33;;;;;;;1029.60;939.10;;;28.10;1.00;;;;;;6123890;23;20380;-88
2022/09/30 09:19:09;;;;;;;874.97;791.00;;;28.70;1.00;;;;;;6126101;23;20159;-87
2022/09/30 09:21:52;;;;;;;886.92;801.53;;;28.50;1.00;;;;;;6126054;23;20620;-85
2022/09/30 09:24:23;;;;;;;889.03;803.70;;;28.50;1.00;;;;;;6125938;23;20218;-87
2022/09/30 09:26:52;;;;;;;882.92;797.83;;;28.20;1.00;;;;;;6127406;23;20190;-87
2022/09/30 09:29:32;;;;;;;864.03;779.75;;;28.00;1.00;;;;;;6127774;23;20166;-90
2022/09/30 09:32:00;;;;;;;;;;;27.80;1.00;;;;;;6127781;23;20054;-88
2022/09/30 09:34:30;;;;;;;803.00;721.95;;;27.50;1.00;;;;;;6127628;23;20175;-88
2022/09/30 09:37:06;;;;;;;780.65;699.92;;;27.40;1.00;;;;;;6127983;23;20222;-86
2022/09/30 09:40:06;;;;;;;755.72;675.70;;;27.10;1.00;;;;;;6127700;23;20195;-89
2022/09/30 09:42:56;;;;;;;771.15;688.00;;;26.50;1.00;;;;;;6120448;23;20152;-86
2022/09/30 09:45:30;;;;;;;737.77;656.17;;;25.80;1.00;;;;;;6127358;23;20585;-86
2022/09/30 09:47:59;;;;;;;730.37;636.27;;;25.20;1.00;;;;;;6127792;23;20218;-87
2022/09/30 09:50:35;;;;;;;734.73;626.20;;;24.60;1.00;;;;;;6127666;23;20144;-88
2022/09/30 09:53:18;;;;;;;;;;;24.10;1.00;;;;;;6127358;23;20076;-92
2022/09/30 09:55:45;;;;;;;722.50;595.33;;;23.60;1.00;;;;;;6109177;23;20220;-84
2022/09/30 09:58:16;;;;;;;735.20;597.07;;;23.10;1.00;;;;;;6127159;23;20168;-88
2022/09/30 10:01:24;;;;;;;717.80;550.43;;;22.70;1.00;;;;;;6127276;23;20152;-89
2022/09/30 10:04:08;;;;;;;706.90;525.30;;;22.20;1.00;;;;;;6126980;23;20195;-85
2022/09/30 10:06:54;;;;;;;719.97;525.00;;;21.70;1.00;;;;;;6127306;23;20188;-84
2022/09/30 10:09:27;;;;;;;715.03;493.13;;;21.40;1.00;;;;;;6127216;23;20159;-91
2022/09/30 10:12:14;;;;;;;;;;;21.20;1.00;;;;;;6128183;23;20100;-88
2022/09/30 10:14:45;;;;;;;;;;;21.00;1.00;;;;;;6111498;23;19913;-87
2022/09/30 10:17:19;;;;;;;720.03;499.90;;;20.80;1.00;;;;;;6126596;23;25088;-89
2022/09/30 10:19:51;;;;;;;692.60;452.70;;;20.60;1.00;;;;;;6127079;23;20199;-87
2022/09/30 10:22:20;;;;;;;678.53;428.03;;;20.50;1.00;;;;;;6127286;23;20207;-87
2022/09/30 10:24:49;;;;;;;695.57;459.37;;;20.30;1.00;;;;;;6127037;23;20235;-87
2022/09/30 10:27:29;;;;;;;709.77;482.00;;;20.20;1.00;;;;;;6126852;23;20187;-86
2022/09/30 10:29:56;;;;;;;701.00;459.63;;;20.10;1.00;;;;;;6126289;23;20167;-85
2022/09/30 10:32:26;;;;;;;679.47;408.63;;;20.00;1.00;;;;;;6126020;23;20522;-86
2022/09/30 10:35:00;;;;;;;694.57;436.33;;;19.90;1.00;;;;;;6126215;23;20211;-85
2022/09/30 10:37:27;;;;;;;708.37;462.33;;;19.90;1.00;;;;;;6126761;23;20158;-86
2022/09/30 10:40:00;;;;;;;702.63;450.80;;;19.70;1.00;;;;;;6126523;23;20159;-85
2022/09/30 10:42:29;;;;;;;703.93;442.93;;;19.60;1.00;;;;;;6126790;23;20155;-85
2022/09/30 10:45:00;;;;;;;711.30;481.80;;;19.50;1.00;;;;;;6126355;23;20167;-86
2022/09/30 10:47:30;;;;;;;693.03;431.30;;;19.50;1.00;;;;;;6126628;23;20234;-86
2022/09/30 10:50:03;;;;;;;713.57;471.83;;;19.40;1.00;;;;;;6126505;23;20163;-86
2022/09/30 10:52:34;;;;;;;713.67;442.23;;;19.40;1.00;;;;;;6126726;23;20173;-86
2022/09/30 10:55:06;;;;;;;725.87;435.83;;;19.40;1.00;;;;;;6126709;23;20163;-85
2022/09/30 10:57:35;;;;;;;676.27;381.63;;;19.30;1.00;;;;;;6126356;23;20155;-85
2022/09/30 11:00:05;;;;;;;700.43;424.00;;;19.30;1.00;;;;;;6126205;23;20227;-85
2022/09/30 11:02:39;;;;;;;712.87;395.73;;;19.20;1.00;;;;;;6125942;23;20159;-85
2022/09/30 11:05:16;;;;;;;665.63;385.27;;;19.10;1.00;;;;;;6135291;23;20190;-85
2022/09/30 11:07:50;;;;;;;668.30;382.43;;;19.20;1.00;;;;;;6155614;23;20189;-86
2022/09/30 11:10:33;;;;;;;686.50;393.83;;;19.20;1.00;;;;;;6155176;23;20154;-85
2022/09/30 11:13:06;;;;;;;661.63;363.83;;;19.20;1.00;;;;;;6155763;23;20468;-85
2022/09/30 11:15:43;;;;;;;655.23;356.67;;;19.20;1.00;;;;;;6155826;23;20186;-86
2022/09/30 11:18:22;;;;;;;644.77;349.47;;;19.10;1.00;;;;;;6155285;23;20657;-85
2022/09/30 11:20:54;;;;;;;633.23;345.03;;;19.10;1.00;;;;;;6155210;23;20154;-85
2022/09/30 11:23:28;;;;;;;636.63;377.03;;;19.10;1.00;;;;;;6155578;23;20155;-85
2022/09/30 11:26:03;;;;;;;636.60;357.83;;;19.00;1.00;;;;;;6155706;23;20210;-86
2022/09/30 11:28:54;;;;;;;632.47;353.73;;;19.00;1.00;;;;;;6155858;23;20583;-85
2022/09/30 11:31:31;;;;;;;618.73;340.60;;;19.00;1.00;;;;;;6155529;23;20351;-86
2022/09/30 11:34:17;;;;;;;621.47;360.77;;;19.00;1.00;;;;;;6155589;23;20154;-86
2022/09/30 11:36:52;;;;;;;650.27;423.23;;;19.10;1.00;;;;;;6155116;23;20162;-85
2022/09/30 11:39:36;;;;;;;611.53;359.93;;;19.00;1.00;;;;;;6155662;23;20150;-86
2022/09/30 11:42:11;;;;;;;621.17;381.97;;;19.00;1.00;;;;;;6155859;23;20157;-86
2022/09/30 11:44:41;;;;;;;625.33;320.80;;;19.00;1.00;;;;;;6154989;23;20154;-86
2022/09/30 11:47:24;;;;;;;629.13;320.23;;;18.90;1.00;;;;;;6154887;23;20194;-86
2022/09/30 11:50:17;;;;;;;629.93;341.13;;;18.90;1.00;;;;;;6155350;23;20158;-85
2022/09/30 11:52:55;;;;;;;634.07;351.50;;;18.80;1.00;;;;;;6155444;23;20155;-86
2022/09/30 11:55:31;;;;;;;;;;;18.70;1.00;;;;;;6155404;23;20021;-85
2022/09/30 11:58:03;;;;;;;637.07;337.40;;;18.60;1.00;;;;;;6155301;23;20198;-85
2022/09/30 12:00:33;;;;;;;656.27;372.30;;;18.60;1.00;;;;;;6155776;23;20147;-85
2022/09/30 12:03:07;;;;;;;667.30;384.70;;;18.60;1.00;;;;;;6155275;23;20166;-85
2022/09/30 12:05:39;;;;;;;751.97;362.30;;;18.70;1.00;;;;;;6155662;23;20238;-85
2022/09/30 12:08:14;;;;;;;678.67;375.43;;;18.70;1.00;;;;;;6154977;23;20183;-85
2022/09/30 12:10:46;;;;;;;715.00;439.03;;;18.70;1.00;;;;;;6154818;23;20154;-85
2022/09/30 12:13:18;;;;;;;667.90;361.10;;;18.70;1.00;;;;;;6154987;23;20154;-85
2022/09/30 12:15:47;;;;;;;651.70;345.63;;;18.70;1.00;;;;;;6155020;23;20158;-86
2022/09/30 12:18:14;;;;;;;;;;;18.70;1.00;;;;;;6154778;23;20171;-85
2022/09/30 12:20:46;;;;;;;;;;;18.70;1.00;;;;;;6154919;23;19959;-85
2022/09/30 12:23:17;;;;;;;;;;;18.70;1.00;;;;;;6155253;23;19944;-86
2022/09/30 12:25:47;;;;;;;;;;;18.70;1.00;;;;;;6155326;23;20010;-86
2022/09/30 12:31:13;;;;;;;;;;;18.70;1.00;;;;;;6155651;23;19967;-85
2022/09/30 12:33:47;;;;;;;;;;;18.50;1.00;;;;;;6155154;23;19916;-86
2022/09/30 12:36:43;;;;;;;638.97;324.97;;;18.50;1.00;;;;;;6155242;23;20092;-86
2022/09/30 12:39:44;;;;;;;632.93;320.87;;;18.60;1.00;;;;;;6146950;23;20155;-85
2022/09/30 12:42:41;;;;;;;632.73;310.53;;;18.60;1.00;;;;;;6155140;23;20151;-85
2022/09/30 12:45:38;;;;;;;721.27;401.10;;;18.70;1.00;;;;;;6154923;23;20167;-86
2022/09/30 12:48:10;;;;;;;660.57;349.17;;;18.70;1.00;;;;;;6154847;23;20178;-86
2022/09/30 12:50:44;;;;;;;656.80;344.97;;;18.70;1.00;;;;;;6155162;23;20161;-86
2022/09/30 12:53:20;;;;;;;652.17;352.93;;;18.60;1.00;;;;;;6154560;23;20593;-85
2022/09/30 12:55:48;;;;;;;650.77;343.90;;;18.60;1.00;;;;;;6154465;23;20214;-86
2022/09/30 12:58:22;;;;;;;636.70;332.47;;;18.60;1.00;;;;;;6153080;23;20170;-82
2022/09/30 13:01:06;;;;;;;642.10;328.60;;;18.70;1.00;;;;;;6155402;23;20620;-82
2022/09/30 13:03:49;;;;;;;643.03;339.83;;;18.70;1.00;;;;;;6155779;23;20481;-84
2022/09/30 13:06:17;;;;;;;620.53;329.23;;;18.70;1.00;;;;;;6155743;23;20158;-83
2022/09/30 13:09:05;;;;;;;626.10;356.63;;;18.70;1.00;;;;;;6155826;23;20512;-84
2022/09/30 13:11:41;;;;;;;621.00;309.63;;;18.60;1.00;;;;;;6156372;23;20202;-84
2022/09/30 13:14:31;;;;;;;635.03;315.53;;;18.50;1.00;;;;;;6156992;23;20150;-83
2022/09/30 13:17:00;;;;;;;638.23;326.67;;;18.40;1.00;;;;;;6156556;23;20158;-84
2022/09/30 13:19:35;;;;;;;631.93;323.67;;;18.40;1.00;;;;;;6156581;23;20667;-83
2022/09/30 13:22:47;;;;;;;633.53;323.70;;;18.40;1.00;;;;;;6156279;23;20182;-82
2022/09/30 13:25:16;;;;;;;623.13;315.00;;;18.40;1.00;;;;;;6156019;23;20667;-83
2022/09/30 13:27:45;;;;;;;614.83;306.33;;;18.30;1.00;;;;;;6156032;23;20715;-83
2022/09/30 13:30:33;;;;;;;630.63;315.13;;;18.20;1.00;;;;;;6156320;23;20290;-82
2022/09/30 13:33:28;;;;;;;618.00;309.73;;;18.00;1.00;;;;;;6156484;23;20166;-83
2022/09/30 13:36:09;;;;;;;629.63;315.27;;;17.90;1.00;;;;;;6156010;23;20170;-83
2022/09/30 13:38:40;;;;;;;629.20;313.77;;;17.80;1.00;;;;;;6156468;23;20162;-83
2022/09/30 13:41:17;;;;;;;623.43;306.60;;;17.80;1.00;;;;;;6155973;23;20151;-83
2022/09/30 13:43:49;;;;;;;624.03;302.37;;;17.80;1.00;;;;;;6155975;23;20221;-83
2022/09/30 13:46:25;;;;;;;621.10;303.17;;;17.80;1.00;;;;;;6156236;23;20157;-83
2022/09/30 13:48:57;;;;;;;622.10;302.47;;;17.70;1.00;;;;;;6156017;23;20210;-83
2022/09/30 13:51:28;;;;;;;623.13;295.57;;;17.70;1.00;;;;;;6155793;23;20605;-83
2022/09/30 13:53:58;;;;;;;624.97;306.13;;;17.80;1.00;;;;;;6155777;23;20166;-83
2022/09/30 13:56:32;;;;;;;632.40;304.83;;;17.90;1.00;;;;;;6155958;23;20178;-83
2022/09/30 13:59:22;;;;;;;628.80;305.77;;;17.80;1.00;;;;;;6156047;23;20609;-83
2022/09/30 14:02:21;;;;;;;621.30;297.13;;;17.80;1.00;;;;;;6156131;23;20241;-83